Time;durP1;ratioP1;P1;durP2;ratioP2;P2;SDS_P1;SDS_P2;PMS_P1;PMS_P2;Temp;Humidity;BMP_temperature;BMP_pressure;BME280_temperature;BME280_humidity;BME280_pressure;Samples;Min_cycle;Max_cycle;Signal;HPM_P1;HPM_P2
2022/09/15 00:00:53;;;;;;;;;;;;;;;20.77;88.20;98150.25;5074900;28;20015;-46
2022/09/15 00:03:22;;;;;;;;;;;;;;;20.62;88.42;98148.47;5056893;28;20389;-47
2022/09/15 00:05:48;;;;;;;;;;;;;;;20.42;88.83;98142.19;5075047;28;20031;-47
2022/09/15 00:08:13;;;;;;;;;;;;;;;20.28;89.22;98144.72;5074846;28;20429;-45
2022/09/15 00:10:47;;;;;;;;;;;;;;;20.29;89.72;98140.94;5056810;28;19917;-46
2022/09/15 00:13:12;;;;;;;;;;;;;;;20.12;89.09;98137.84;5074806;28;19922;-44
2022/09/15 00:15:38;;;;;;;;;;;;;;;20.03;89.62;98128.88;5074690;28;20007;-45
2022/09/15 00:18:05;;;;;;;;;;;;;;;19.94;89.87;98136.63;5074679;28;20007;-45
2022/09/15 00:20:30;;;;;;;;;;;;;;;20.03;90.55;98140.31;5074577;28;19928;-46
2022/09/15 00:22:56;;;;;;;;;;;;;;;20.03;89.97;98131.53;5074503;28;19920;-46
2022/09/15 00:25:24;;;;;;;;;;;;;;;19.88;89.53;98135.88;5074430;28;19928;-46
2022/09/15 00:27:50;;;;;;;;;;;;;;;19.74;89.63;98138.34;5074224;28;19954;-46
2022/09/15 00:30:15;;;;;;;;;;;;;;;19.60;89.75;98136.50;5074342;28;19920;-44
2022/09/15 00:32:41;;;;;;;;;;;;;;;19.55;90.06;98140.78;5074411;28;19938;-46
2022/09/15 00:35:06;;;;;;;;;;;;;;;19.56;90.51;98142.38;5056273;28;19916;-46
2022/09/15 00:37:32;;;;;;;;;;;;;;;19.94;92.03;98144.63;5074551;28;19916;-46
2022/09/15 00:39:57;;;;;;;;;;;;;;;20.06;90.73;98144.28;5056304;28;20128;-45
2022/09/15 00:42:23;;;;;;;;;;;;;;;20.27;90.64;98144.97;5074131;28;19923;-47
2022/09/15 00:44:51;;;;;;;;;;;;;;;20.25;90.32;98133.81;5074131;28;19917;-45
2022/09/15 00:47:19;;;;;;;;;;;;;;;20.26;90.26;98138.03;5056106;28;20344;-48
2022/09/15 00:49:46;;;;;;;;;;;;;;;20.52;90.77;98138.66;5056119;28;19920;-48
2022/09/15 00:52:20;;;;;;;;;;;;;;;20.69;89.80;98141.75;5056049;28;19923;-48
2022/09/15 00:55:07;;;;;;;;;;;;;;;20.47;88.53;98139.50;5056012;28;20400;-49
2022/09/15 00:57:47;;;;;;;;;;;;;;;20.27;89.15;98137.78;5073923;28;19916;-49
2022/09/15 01:00:15;;;;;;;;;;;;;;;20.20;89.37;98133.81;5073841;28;19920;-48
2022/09/15 01:02:42;;;;;;;;;;;;;;;20.22;89.36;98127.16;5073697;28;19920;-48
2022/09/15 01:05:09;;;;;;;;;;;;;;;20.11;90.09;98125.63;5073743;28;19943;-48
2022/09/15 01:07:38;;;;;;;;;;;;;;;20.39;91.64;98129.44;5073660;28;19917;-48
2022/09/15 01:10:24;;;;;;;;;;;;;;;20.50;90.70;98124.81;5073475;28;19951;-48
2022/09/15 01:12:50;;;;;;;;;;;;;;;20.24;89.38;98130.34;5055506;28;19920;-47
2022/09/15 01:15:15;;;;;;;;;;;;;;;20.17;89.97;98121.84;5073519;28;19982;-48
2022/09/15 01:17:41;;;;;;;;;;;;;;;20.17;89.38;98123.72;5055619;28;19973;-47
2022/09/15 01:20:06;;;;;;;;;;;;;;;20.07;88.46;98124.59;5073364;28;19924;-47
2022/09/15 01:22:41;;;;;;;;;;;;;;;19.87;88.05;98125.50;5055419;28;19923;-48
2022/09/15 01:25:26;;;;;;;;;;;;;;;19.93;89.42;98125.19;5055329;28;20008;-48
2022/09/15 01:27:54;;;;;;;;;;;;;;;19.92;88.69;98128.13;5073109;28;19921;-48
2022/09/15 01:30:21;;;;;;;;;;;;;;;19.95;88.48;98122.25;5073235;28;19921;-48
2022/09/15 01:33:05;;;;;;;;;;;;;;;20.04;88.95;98125.13;5073165;28;19939;-47
2022/09/15 01:35:32;;;;;;;;;;;;;;;20.16;88.91;98122.91;5073007;28;20389;-46
2022/09/15 01:38:02;;;;;;;;;;;;;;;20.31;89.38;98128.16;5073125;28;19916;-47
2022/09/15 01:40:30;;;;;;;;;;;;;;;20.37;88.73;98112.13;5055095;28;19923;-48
2022/09/15 01:42:57;;;;;;;;;;;;;;;20.49;89.44;98110.69;5055006;28;19917;-48
2022/09/15 01:45:25;;;;;;;;;;;;;;;20.59;88.99;98104.50;5072878;28;19916;-48
2022/09/15 01:47:53;;;;;;;;;;;;;;;20.45;88.06;98103.53;5054932;28;19920;-47
2022/09/15 01:50:21;;;;;;;;;;;;;;;20.00;88.16;98103.59;5072727;28;19921;-47
2022/09/15 01:52:49;;;;;;;;;;;;;;;19.82;89.17;98101.53;5054860;28;19959;-47
2022/09/15 01:55:20;;;;;;;;;;;;;;;19.82;89.82;98094.38;5072687;28;19917;-48
2022/09/15 01:57:45;;;;;;;;;;;;;;;19.60;88.72;98089.41;5072705;28;19923;-48
2022/09/15 02:00:11;;;;;;;;;;;;;;;19.16;88.15;98084.78;5072666;28;20007;-48
2022/09/15 02:02:41;;;;;;;;;;;;;;;18.95;89.04;98076.03;5072583;28;19924;-47
2022/09/15 02:05:13;;;;;;;;;;;;;;;18.98;89.42;98072.06;5072599;28;19921;-48
2022/09/15 02:08:04;;;;;;;;;;;;;;;18.95;89.45;98071.53;5072939;28;20270;-47
2022/09/15 02:10:45;;;;;;;;;;;;;;;18.94;87.76;98071.81;5065328;28;19981;-49
2022/09/15 02:13:10;;;;;;;;;;;;;;;18.80;87.17;98066.25;5054548;28;19921;-46
2022/09/15 02:15:41;;;;;;;;;;;;;;;18.74;84.88;98069.97;5072479;28;20049;-48
2022/09/15 02:18:09;;;;;;;;;;;;;;;18.59;85.19;98054.81;5072734;28;20010;-47
2022/09/15 02:20:40;;;;;;;;;;;;;;;18.56;83.76;98048.19;5071677;28;19920;-47
2022/09/15 02:23:14;;;;;;;;;;;;;;;18.59;82.72;98046.84;5054324;28;19970;-48
2022/09/15 02:25:46;;;;;;;;;;;;;;;18.51;83.42;98056.19;5072349;28;19943;-48
2022/09/15 02:28:13;;;;;;;;;;;;;;;18.54;85.85;98054.84;5054085;28;20395;-47
2022/09/15 02:30:40;;;;;;;;;;;;;;;18.49;86.37;98054.81;5072258;28;19924;-48
2022/09/15 02:33:07;;;;;;;;;;;;;;;18.52;87.16;98054.31;5072147;28;19920;-48
2022/09/15 02:35:35;;;;;;;;;;;;;;;18.73;87.87;98058.53;5054221;28;19916;-47
2022/09/15 02:38:01;;;;;;;;;;;;;;;18.86;88.20;98054.53;5054232;28;19921;-48
2022/09/15 02:40:27;;;;;;;;;;;;;;;19.03;87.49;98050.78;5072422;28;19916;-48
2022/09/15 02:42:57;;;;;;;;;;;;;;;19.10;86.29;98049.41;5054267;28;20374;-48
2022/09/15 02:45:23;;;;;;;;;;;;;;;19.18;85.27;98037.44;5037481;28;19966;-48
2022/09/15 02:47:49;;;;;;;;;;;;;;;19.19;83.16;98036.34;5072147;28;20410;-48
2022/09/15 02:50:16;;;;;;;;;;;;;;;19.21;83.29;98038.75;5053995;28;19917;-48
2022/09/15 02:52:41;;;;;;;;;;;;;;;19.24;83.43;98048.84;5072100;28;19923;-46
2022/09/15 02:55:07;;;;;;;;;;;;;;;19.16;83.83;98045.66;5054024;28;20033;-46
2022/09/15 02:57:32;;;;;;;;;;;;;;;18.99;84.54;98041.75;5072006;28;20058;-46
2022/09/15 03:00:13;;;;;;;;;;;;;;;18.87;85.17;98034.84;5071921;28;19920;-45
2022/09/15 03:02:39;;;;;;;;;;;;;;;18.96;87.10;98033.25;5071931;28;19922;-45
2022/09/15 03:05:05;;;;;;;;;;;;;;;18.98;85.97;98029.53;5071854;28;19952;-47
2022/09/15 03:07:31;;;;;;;;;;;;;;;18.80;83.96;98026.38;5071902;28;19921;-47
2022/09/15 03:09:57;;;;;;;;;;;;;;;18.65;83.93;98024.53;5071884;28;19916;-46
2022/09/15 03:12:23;;;;;;;;;;;;;;;18.55;83.99;98028.00;5071814;28;19922;-47
2022/09/15 03:14:49;;;;;;;;;;;;;;;18.54;84.04;98025.59;5071874;28;19923;-45
2022/09/15 03:17:14;;;;;;;;;;;;;;;18.52;84.28;98028.53;5071752;28;19916;-46
2022/09/15 03:19:40;;;;;;;;;;;;;;;18.49;85.04;98025.59;5071844;28;20360;-46
2022/09/15 03:22:06;;;;;;;;;;;;;;;18.44;84.32;98021.09;5071670;28;20008;-46
2022/09/15 03:24:32;;;;;;;;;;;;;;;18.42;84.18;98030.41;5071679;28;20314;-46
2022/09/15 03:26:58;;;;;;;;;;;;;;;18.39;84.10;98026.44;5071574;28;19916;-47
2022/09/15 03:29:23;;;;;;;;;;;;;;;18.37;84.69;98020.56;5071809;28;19927;-46
2022/09/15 03:31:48;;;;;;;;;;;;;;;18.36;84.46;98029.59;5073267;28;20310;-46
2022/09/15 03:34:15;;;;;;;;;;;;;;;18.38;83.80;98027.47;5057459;28;19916;-48
2022/09/15 03:36:41;;;;;;;;;;;;;;;18.39;83.34;98030.94;5057459;28;20011;-48
2022/09/15 03:39:06;;;;;;;;;;;;;;;18.48;83.28;98027.47;5075352;28;20015;-46
2022/09/15 03:41:31;;;;;;;;;;;;;;;18.54;83.20;98029.06;5075200;28;19960;-47
2022/09/15 03:43:57;;;;;;;;;;;;;;;18.71;84.25;98033.28;5075299;28;20010;-49
2022/09/15 03:46:22;;;;;;;;;;;;;;;18.76;84.02;98030.59;5075219;28;19973;-48
2022/09/15 03:48:48;;;;;;;;;;;;;;;18.80;83.82;98039.66;5075219;28;20359;-49
2022/09/15 03:51:13;;;;;;;;;;;;;;;18.94;84.41;98039.91;5057112;28;19920;-48
2022/09/15 03:53:40;;;;;;;;;;;;;;;19.37;86.12;98032.28;5075142;28;19924;-48
2022/09/15 03:56:21;;;;;;;;;;;;;;;19.80;85.24;98019.28;5075026;28;19939;-48
2022/09/15 03:58:46;;;;;;;;;;;;;;;19.89;82.54;98030.94;5075083;28;19923;-49
2022/09/15 04:01:12;;;;;;;;;;;;;;;20.04;82.85;98042.53;5074889;28;19917;-46
2022/09/15 04:03:38;;;;;;;;;;;;;;;20.37;82.30;98051.63;5075157;28;19962;-47
2022/09/15 04:06:03;;;;;;;;;;;;;;;20.50;81.46;98052.84;5075104;28;19956;-46
2022/09/15 04:08:29;;;;;;;;;;;;;;;20.61;80.82;98057.03;5074817;28;19920;-46
2022/09/15 04:10:54;;;;;;;;;;;;;;;20.61;80.33;98050.91;5074851;28;19917;-46
2022/09/15 04:13:20;;;;;;;;;;;;;;;20.48;79.57;98058.47;5056763;28;19920;-46
2022/09/15 04:15:47;;;;;;;;;;;;;;;20.32;79.72;98052.47;5056777;28;19991;-46
2022/09/15 04:18:13;;;;;;;;;;;;;;;20.12;79.42;98058.75;5074835;28;20398;-46
2022/09/15 04:20:38;;;;;;;;;;;;;;;19.95;79.60;98064.44;5074668;28;19968;-46
2022/09/15 04:23:04;;;;;;;;;;;;;;;20.06;80.27;98057.19;5074514;28;19920;-47
2022/09/15 04:25:29;;;;;;;;;;;;;;;20.24;79.98;98055.72;5074780;28;19924;-47
2022/09/15 04:27:57;;;;;;;;;;;;;;;20.20;79.06;98054.69;5074206;28;19920;-47
2022/09/15 04:30:23;;;;;;;;;;;;;;;19.99;79.13;98055.91;5074365;28;19927;-46
2022/09/15 04:32:48;;;;;;;;;;;;;;;19.92;79.33;98053.53;5074381;28;19983;-46
2022/09/15 04:35:14;;;;;;;;;;;;;;;20.07;78.82;98050.00;5056373;28;19917;-47
2022/09/15 04:37:40;;;;;;;;;;;;;;;20.00;78.41;98054.84;5056320;28;20310;-47
2022/09/15 04:40:05;;;;;;;;;;;;;;;19.85;78.61;98053.88;5074220;28;19943;-47
2022/09/15 04:42:31;;;;;;;;;;;;;;;19.91;79.33;98070.63;5073866;28;19916;-46
2022/09/15 04:44:56;;;;;;;;;;;;;;;19.97;79.37;98068.72;5073800;28;19917;-46
2022/09/15 04:47:25;;;;;;;;;;;;;;;20.14;78.99;98061.13;5056087;28;19924;-47
2022/09/15 04:49:51;;;;;;;;;;;;;;;20.27;78.33;98060.50;5056137;28;19920;-47
2022/09/15 04:52:16;;;;;;;;;;;;;;;20.42;78.76;98062.22;5073972;28;19970;-46
2022/09/15 04:54:42;;;;;;;;;;;;;;;20.42;77.90;98070.22;5074035;28;20350;-48
2022/09/15 04:57:08;;;;;;;;;;;;;;;20.19;78.42;98073.63;5073887;28;19920;-47
2022/09/15 04:59:33;;;;;;;;;;;;;;;20.32;78.14;98078.31;5073780;28;19923;-46
2022/09/15 05:01:59;;;;;;;;;;;;;;;20.09;77.11;98071.81;5073744;28;19920;-46
2022/09/15 05:04:24;;;;;;;;;;;;;;;19.78;77.31;98065.88;5055737;28;19923;-46
2022/09/15 05:06:50;;;;;;;;;;;;;;;19.64;77.88;98063.81;5073932;28;19920;-46
2022/09/15 05:09:15;;;;;;;;;;;;;;;19.53;77.32;98071.03;5073623;28;19951;-47
2022/09/15 05:11:40;;;;;;;;;;;;;;;19.21;76.66;98070.66;5073618;28;20330;-46
2022/09/15 05:14:07;;;;;;;;;;;;;;;18.98;77.17;98074.72;5073582;28;19962;-46
2022/09/15 05:16:32;;;;;;;;;;;;;;;18.93;78.56;98078.19;5073770;28;19916;-47
2022/09/15 05:18:59;;;;;;;;;;;;;;;19.25;79.28;98077.81;5073397;28;20442;-46
2022/09/15 05:21:25;;;;;;;;;;;;;;;19.16;79.04;98071.47;5073316;28;19939;-47
2022/09/15 05:23:50;;;;;;;;;;;;;;;18.94;79.02;98075.25;5073394;28;20305;-46
2022/09/15 05:26:20;;;;;;;;;;;;;;;18.81;79.47;98070.50;5073298;28;19924;-47
2022/09/15 05:28:46;;;;;;;;;;;;;;;18.92;78.95;98080.06;5072754;28;19920;-47
2022/09/15 05:31:13;;;;;;;;;;;;;;;18.98;78.46;98085.38;5073204;28;19999;-47
2022/09/15 05:33:41;;;;;;;;;;;;;;;18.99;78.27;98081.63;5073244;28;20306;-47
2022/09/15 05:36:07;;;;;;;;;;;;;;;19.06;78.70;98090.13;5073024;28;19917;-46
2022/09/15 05:38:32;;;;;;;;;;;;;;;19.16;78.92;98082.13;5073009;28;20364;-47
2022/09/15 05:41:06;;;;;;;;;;;;;;;19.03;78.90;98093.31;5073026;28;19920;-46
2022/09/15 05:43:32;;;;;;;;;;;;;;;19.23;79.27;98100.44;5055440;28;19956;-47
2022/09/15 05:45:58;;;;;;;;;;;;;;;19.70;78.34;98100.00;5072980;28;20340;-47
2022/09/15 05:48:24;;;;;;;;;;;;;;;20.04;76.32;98106.47;5054964;28;19917;-47
2022/09/15 05:50:50;;;;;;;;;;;;;;;20.11;75.61;98101.66;5072955;28;20003;-47
2022/09/15 05:53:16;;;;;;;;;;;;;;;20.01;74.48;98109.72;5072935;28;19917;-47
2022/09/15 05:55:41;;;;;;;;;;;;;;;19.46;75.69;98109.69;5054049;28;19924;-47
2022/09/15 05:58:07;;;;;;;;;;;;;;;19.00;77.14;98110.63;5054864;28;20317;-46
2022/09/15 06:00:33;;;;;;;;;;;;;;;18.68;78.75;98116.22;5072701;28;20007;-47
2022/09/15 06:02:58;;;;;;;;;;;;;;;18.49;79.29;98123.91;5072644;28;19924;-45
2022/09/15 06:05:23;;;;;;;;;;;;;;;18.63;79.78;98122.31;5054700;28;19925;-46
2022/09/15 06:07:51;;;;;;;;;;;;;;;18.93;79.52;98123.38;5072590;28;20457;-46
2022/09/15 06:10:17;;;;;;;;;;;;;;;19.16;78.31;98130.00;5072771;28;20374;-47
2022/09/15 06:12:42;;;;;;;;;;;;;;;19.23;76.09;98127.06;5072440;28;19924;-48
2022/09/15 06:15:08;;;;;;;;;;;;;;;19.16;76.05;98127.34;5072494;28;20238;-47
2022/09/15 06:17:33;;;;;;;;;;;;;;;19.20;76.48;98130.28;5072774;28;19916;-46
2022/09/15 06:19:59;;;;;;;;;;;;;;;19.43;77.00;98124.31;5072319;28;19916;-47
2022/09/15 06:22:24;;;;;;;;;;;;;;;19.78;76.71;98124.47;5072321;28;20015;-47
2022/09/15 06:24:51;;;;;;;;;;;;;;;20.09;75.89;98125.91;5072352;28;19968;-47
2022/09/15 06:27:17;;;;;;;;;;;;;;;20.25;74.89;98128.47;5072125;28;19973;-47
2022/09/15 06:29:42;;;;;;;;;;;;;;;20.06;74.58;98123.78;5072355;28;20338;-47
2022/09/15 06:32:08;;;;;;;;;;;;;;;19.65;74.97;98131.16;5072235;28;20447;-47
2022/09/15 06:34:33;;;;;;;;;;;;;;;19.34;76.04;98136.59;5054191;28;19924;-47
2022/09/15 06:36:59;;;;;;;;;;;;;;;19.19;77.14;98136.63;5072234;28;19923;-47
2022/09/15 06:39:24;;;;;;;;;;;;;;;19.09;77.60;98129.47;5072127;28;19916;-46
2022/09/15 06:41:50;;;;;;;;;;;;;;;19.07;77.71;98135.06;5072049;28;19920;-46
2022/09/15 06:44:16;;;;;;;;;;;;;;;19.15;77.89;98144.34;5072419;28;20263;-48
2022/09/15 06:46:41;;;;;;;;;;;;;;;19.27;78.50;98144.84;5072080;28;19979;-46
2022/09/15 06:49:07;;;;;;;;;;;;;;;19.84;78.33;98142.00;5054132;28;19927;-46
2022/09/15 06:51:34;;;;;;;;;;;;;;;20.21;75.24;98143.41;5053979;28;20319;-48
2022/09/15 06:54:04;;;;;;;;;;;;;;;19.98;74.64;98145.69;5072048;28;20316;-49
2022/09/15 06:56:30;;;;;;;;;;;;;;;19.72;75.21;98150.34;5072019;28;19923;-48
2022/09/15 06:58:56;;;;;;;;;;;;;;;19.59;75.98;98143.69;5072008;28;19917;-47
2022/09/15 07:01:28;;;;;;;;;;;;;;;20.58;76.11;98150.88;5071947;28;20002;-46
2022/09/15 07:03:54;;;;;;;;;;;;;;;22.33;73.44;98147.91;5053991;28;19916;-47
2022/09/15 07:06:21;;;;;;;;;;;;;;;24.36;69.21;98152.69;5054882;28;19930;-47
2022/09/15 07:08:46;;;;;;;;;;;;;;;25.81;66.18;98148.69;5075958;28;20301;-46
2022/09/15 07:11:12;;;;;;;;;;;;;;;27.19;62.52;98148.94;5075887;28;19917;-47
2022/09/15 07:13:38;;;;;;;;;;;;;;;28.58;58.33;98152.69;5075926;28;19916;-46
2022/09/15 07:16:04;;;;;;;;;;;;;;;29.32;57.34;98153.66;5075816;28;19916;-49
2022/09/15 07:18:30;;;;;;;;;;;;;;;29.92;54.56;98156.66;5075829;28;19916;-48
2022/09/15 07:20:59;;;;;;;;;;;;;;;30.03;52.02;98160.47;5057710;28;19942;-46
2022/09/15 07:23:25;;;;;;;;;;;;;;;30.12;53.52;98163.03;5075664;28;20330;-47
2022/09/15 07:25:50;;;;;;;;;;;;;;;30.64;51.56;98156.75;5057629;28;19920;-47
2022/09/15 07:28:16;;;;;;;;;;;;;;;31.52;47.85;98153.19;5075335;28;20417;-49
2022/09/15 07:30:42;;;;;;;;;;;;;;;32.20;46.11;98156.63;5075560;28;19968;-48
2022/09/15 07:33:09;;;;;;;;;;;;;;;32.88;46.27;98154.41;5075501;28;20018;-47
2022/09/15 07:35:39;;;;;;;;;;;;;;;33.49;45.12;98164.38;5075456;28;19924;-47
2022/09/15 07:38:05;;;;;;;;;;;;;;;33.74;44.50;98163.97;5075417;28;20398;-49
2022/09/15 07:40:33;;;;;;;;;;;;;;;33.89;44.32;98160.31;5075423;28;19920;-49
2022/09/15 07:42:59;;;;;;;;;;;;;;;34.10;42.30;98170.69;5057376;28;20424;-49
2022/09/15 07:45:24;;;;;;;;;;;;;;;34.55;41.27;98168.91;5057309;28;19916;-49
2022/09/15 07:47:50;;;;;;;;;;;;;;;34.67;41.09;98165.19;5057308;28;20007;-48
2022/09/15 07:50:15;;;;;;;;;;;;;;;34.71;41.29;98174.19;5073905;28;19920;-49
2022/09/15 07:52:41;;;;;;;;;;;;;;;34.93;41.36;98167.00;5075107;28;20015;-49
2022/09/15 07:55:08;;;;;;;;;;;;;;;35.20;39.84;98173.09;5075121;28;19920;-49
2022/09/15 07:57:34;;;;;;;;;;;;;;;35.47;38.37;98172.13;5075007;28;19923;-48
2022/09/15 07:59:59;;;;;;;;;;;;;;;35.76;37.51;98173.13;5075254;28;19920;-48
2022/09/15 08:02:25;;;;;;;;;;;;;;;36.16;37.42;98174.91;5074894;28;19971;-48
2022/09/15 08:04:51;;;;;;;;;;;;;;;36.46;37.15;98176.56;5056952;28;19920;-49
2022/09/15 08:07:17;;;;;;;;;;;;;;;37.05;36.70;98176.31;5074868;28;19927;-50
2022/09/15 08:09:43;;;;;;;;;;;;;;;37.22;35.66;98182.22;5074866;28;20398;-50
2022/09/15 08:12:09;;;;;;;;;;;;;;;37.55;36.28;98181.00;5074824;28;20385;-49
2022/09/15 08:14:34;;;;;;;;;;;;;;;38.13;35.44;98184.44;5074702;28;20457;-49
2022/09/15 08:17:01;;;;;;;;;;;;;;;38.33;34.98;98191.00;5074750;28;19920;-50
2022/09/15 08:19:27;;;;;;;;;;;;;;;38.85;34.16;98189.56;5073656;28;19917;-49
2022/09/15 08:21:52;;;;;;;;;;;;;;;39.01;33.72;98192.63;5074512;28;19920;-50
2022/09/15 08:24:18;;;;;;;;;;;;;;;38.99;32.96;98192.25;5074676;28;19916;-49
2022/09/15 08:26:45;;;;;;;;;;;;;;;39.11;31.76;98190.97;5074336;28;19960;-48
2022/09/15 08:29:12;;;;;;;;;;;;;;;39.31;32.00;98194.72;5074523;28;19931;-49
2022/09/15 08:31:38;;;;;;;;;;;;;;;40.01;31.23;98195.69;5074434;28;19916;-49
2022/09/15 08:34:05;;;;;;;;;;;;;;;40.43;30.68;98197.13;5074396;28;19923;-49
2022/09/15 08:36:31;;;;;;;;;;;;;;;40.05;30.24;98204.66;5074599;28;19947;-49
2022/09/15 08:38:57;;;;;;;;;;;;;;;38.68;31.39;98205.75;5074243;28;19916;-50
2022/09/15 08:41:31;;;;;;;;;;;;;;;37.02;33.98;98207.19;5074134;28;19999;-50
2022/09/15 08:44:15;;;;;;;;;;;;;;;35.39;36.02;98218.44;5074197;28;19967;-50
2022/09/15 08:46:45;;;;;;;;;;;;;;;35.18;36.01;98210.09;5074119;28;19920;-47
2022/09/15 08:49:17;;;;;;;;;;;;;;;35.29;35.37;98210.19;5074235;28;19966;-48
2022/09/15 08:51:45;;;;;;;;;;;;;;;35.55;34.71;98212.72;5056156;28;19959;-48
2022/09/15 08:54:14;;;;;;;;;;;;;;;36.93;33.78;98199.34;5074044;28;19921;-48
2022/09/15 08:56:42;;;;;;;;;;;;;;;38.23;30.88;98205.53;5073987;28;19917;-50
2022/09/15 08:59:17;;;;;;;;;;;;;;;39.43;29.88;98203.69;5039366;28;20027;-50
2022/09/15 09:01:54;;;;;;;;;;;;;;;40.09;28.61;98206.16;5073684;28;19970;-48
2022/09/15 09:04:40;;;;;;;;;;;;;;;40.56;28.39;98208.34;5073886;28;19916;-48
2022/09/15 09:07:11;;;;;;;;;;;;;;;40.92;26.39;98210.63;5073841;28;19928;-52
2022/09/15 09:09:46;;;;;;;;;;;;;;;41.63;25.67;98205.19;5073732;28;20375;-52
2022/09/15 09:12:14;;;;;;;;;;;;;;;42.46;24.85;98198.84;5073668;28;19917;-53
2022/09/15 09:14:52;;;;;;;;;;;;;;;42.86;24.50;98201.53;5055639;28;20382;-52
2022/09/15 09:17:36;;;;;;;;;;;;;;;41.96;24.98;98202.59;5055598;28;19959;-52
2022/09/15 09:20:21;;;;;;;;;;;;;;;40.53;26.27;98207.22;5055510;28;19921;-53
2022/09/15 09:22:48;;;;;;;;;;;;;;;39.09;27.51;98207.84;5073408;28;20413;-52
2022/09/15 09:25:17;;;;;;;;;;;;;;;38.01;28.35;98206.75;5073654;28;19927;-51
2022/09/15 09:27:43;;;;;;;;;;;;;;;37.22;27.97;98198.63;5073069;28;20295;-48
2022/09/15 09:30:15;;;;;;;;;;;;;;;36.62;28.41;98210.97;5073122;28;19927;-48
2022/09/15 09:32:58;;;;;;;;;;;;;;;35.85;29.45;98217.25;5073466;28;19942;-48
2022/09/15 09:35:42;;;;;;;;;;;;;;;35.52;30.13;98202.56;5073204;28;19924;-50
2022/09/15 09:38:11;;;;;;;;;;;;;;;34.90;30.70;98211.34;5072672;28;20204;-48
2022/09/15 09:40:40;;;;;;;;;;;;;;;34.83;30.57;98199.59;5055157;28;20389;-48
2022/09/15 09:43:07;;;;;;;;;;;;;;;34.58;30.65;98208.25;5073020;28;19927;-49
2022/09/15 09:45:32;;;;;;;;;;;;;;;34.07;31.79;98211.47;5073050;28;19917;-49
2022/09/15 09:48:19;;;;;;;;;;;;;;;33.41;32.09;98204.28;5072922;28;20017;-50
2022/09/15 09:50:45;;;;;;;;;;;;;;;32.40;33.39;98204.34;5072895;28;19923;-49
2022/09/15 09:53:18;;;;;;;;;;;;;;;32.13;33.87;98205.34;5072932;28;20011;-48
2022/09/15 09:55:44;;;;;;;;;;;;;;;32.06;34.16;98205.19;5073012;28;20370;-47
2022/09/15 09:58:12;;;;;;;;;;;;;;;31.80;34.08;98196.47;5073031;28;20010;-48
2022/09/15 10:00:39;;;;;;;;;;;;;;;31.40;35.12;98202.84;5072782;28;19918;-49
2022/09/15 10:03:13;;;;;;;;;;;;;;;31.17;35.13;98199.16;5072883;28;19920;-48
2022/09/15 10:05:40;;;;;;;;;;;;;;;31.01;35.82;98197.25;5072623;28;20341;-49
2022/09/15 10:08:05;;;;;;;;;;;;;;;30.99;36.17;98196.81;5072579;28;20386;-49
2022/09/15 10:10:31;;;;;;;;;;;;;;;31.13;35.86;98196.41;5072567;28;19920;-47
2022/09/15 10:12:58;;;;;;;;;;;;;;;31.60;35.35;98192.91;5072549;28;20030;-47
2022/09/15 10:15:25;;;;;;;;;;;;;;;31.89;34.80;98196.25;5072507;28;19924;-47
2022/09/15 10:17:52;;;;;;;;;;;;;;;32.15;35.00;98189.47;5072621;28;19932;-49
2022/09/15 10:20:38;;;;;;;;;;;;;;;32.24;34.89;98196.28;5072635;28;20003;-49
2022/09/15 10:23:16;;;;;;;;;;;;;;;32.32;34.58;98191.00;5053901;28;19920;-49
2022/09/15 10:25:42;;;;;;;;;;;;;;;32.43;34.01;98192.75;5072338;28;20005;-50
2022/09/15 10:28:07;;;;;;;;;;;;;;;32.63;33.94;98195.50;5054073;28;19982;-49
2022/09/15 10:30:33;;;;;;;;;;;;;;;32.83;33.65;98188.13;5054364;28;19927;-49
2022/09/15 10:33:22;;;;;;;;;;;;;;;33.22;33.53;98188.84;5072318;28;19924;-47
2022/09/15 10:35:49;;;;;;;;;;;;;;;33.94;32.54;98187.19;5054291;28;19942;-48
2022/09/15 10:38:20;;;;;;;;;;;;;;;34.33;32.24;98194.34;5072548;28;19927;-48
2022/09/15 10:40:49;;;;;;;;;;;;;;;34.45;31.69;98193.31;5071692;28;19916;-48
2022/09/15 10:43:32;;;;;;;;;;;;;;;34.51;31.45;98192.63;5054175;28;20003;-49
2022/09/15 10:46:01;;;;;;;;;;;;;;;35.26;30.70;98191.84;5072205;28;19917;-49
2022/09/15 10:48:29;;;;;;;;;;;;;;;35.41;30.93;98183.38;5072142;28;19966;-48
2022/09/15 10:50:58;;;;;;;;;;;;;;;35.17;30.68;98192.91;5072112;28;20291;-48
2022/09/15 10:53:32;;;;;;;;;;;;;;;34.76;30.47;98184.72;5072019;28;20466;-48
2022/09/15 10:56:06;;;;;;;;;;;;;;;34.40;31.15;98188.97;5072049;28;19960;-49
2022/09/15 10:58:50;;;;;;;;;;;;;;;34.07;31.27;98179.59;5072121;28;19923;-50
2022/09/15 11:01:21;;;;;;;;;;;;;;;33.87;31.38;98178.16;5072041;28;19916;-49
2022/09/15 11:04:13;;;;;;;;;;;;;;;34.06;31.27;98172.56;5071877;28;20379;-49
2022/09/15 11:06:41;;;;;;;;;;;;;;;34.40;30.75;98175.34;5030562;28;20305;-50
2022/09/15 11:09:20;;;;;;;;;;;;;;;34.12;31.06;98175.75;5072006;28;19917;-50
2022/09/15 11:12:04;;;;;;;;;;;;;;;33.85;31.36;98169.56;5071896;28;19924;-47
2022/09/15 11:14:39;;;;;;;;;;;;;;;33.62;31.52;98168.50;5053829;28;19924;-47
2022/09/15 11:17:28;;;;;;;;;;;;;;;33.66;31.72;98173.97;5053888;28;19952;-49
2022/09/15 11:19:57;;;;;;;;;;;;;;;33.77;31.97;98182.31;5063450;28;19916;-49
2022/09/15 11:22:26;;;;;;;;;;;;;;;34.07;31.82;98167.91;5071762;28;19920;-48
2022/09/15 11:25:09;;;;;;;;;;;;;;;34.33;31.68;98167.09;5071791;28;19928;-47
2022/09/15 11:27:39;;;;;;;;;;;;;;;35.36;31.19;98161.13;5071521;28;20038;-48
2022/09/15 11:30:05;;;;;;;;;;;;;;;35.86;30.30;98156.00;5071805;28;20301;-49
2022/09/15 11:32:42;;;;;;;;;;;;;;;35.89;29.56;98155.22;5071752;28;19920;-49
2022/09/15 11:35:16;;;;;;;;;;;;;;;36.69;29.43;98151.66;5071717;28;20352;-48
2022/09/15 11:37:44;;;;;;;;;;;;;;;37.71;27.41;98155.97;5071639;28;19932;-47
2022/09/15 11:40:20;;;;;;;;;;;;;;;38.56;26.61;98146.66;5053649;28;19979;-50
2022/09/15 11:42:56;;;;;;;;;;;;;;;39.20;26.00;98150.13;5053496;28;19993;-48
2022/09/15 11:45:25;;;;;;;;;;;;;;;39.39;26.06;98156.22;5053615;28;19916;-48
2022/09/15 11:47:54;;;;;;;;;;;;;;;38.75;26.59;98153.56;5071575;28;20007;-49
2022/09/15 11:50:40;;;;;;;;;;;;;;;38.20;26.56;98146.03;5071545;28;19917;-49
2022/09/15 11:53:15;;;;;;;;;;;;;;;38.35;27.04;98144.78;5073222;28;19917;-49
2022/09/15 11:55:46;;;;;;;;;;;;;;;38.16;27.13;98140.56;5075379;28;19920;-49
2022/09/15 11:58:18;;;;;;;;;;;;;;;38.21;27.02;98136.63;5057235;28;19924;-49
2022/09/15 12:00:51;;;;;;;;;;;;;;;38.89;26.43;98138.19;5075040;28;20001;-49
2022/09/15 12:03:28;;;;;;;;;;;;;;;39.38;24.85;98143.69;5074923;28;19962;-49
2022/09/15 12:06:05;;;;;;;;;;;;;;;39.74;24.50;98141.38;5074957;28;19917;-49
2022/09/15 12:08:49;;;;;;;;;;;;;;;40.09;24.01;98131.19;5057002;28;19927;-48
2022/09/15 12:11:23;;;;;;;;;;;;;;;40.43;23.51;98130.34;5074908;28;20427;-50
2022/09/15 12:13:49;;;;;;;;;;;;;;;40.21;23.12;98136.13;5074847;28;20361;-50
2022/09/15 12:16:15;;;;;;;;;;;;;;;39.10;23.75;98135.31;5074791;28;19955;-51
2022/09/15 12:18:47;;;;;;;;;;;;;;;38.26;24.51;98130.72;5074953;28;19925;-51
2022/09/15 12:21:12;;;;;;;;;;;;;;;37.61;25.29;98124.72;5074659;28;19916;-51
2022/09/15 12:23:38;;;;;;;;;;;;;;;37.59;26.26;98121.59;5074496;28;19968;-51
2022/09/15 12:26:16;;;;;;;;;;;;;;;37.75;25.46;98121.94;5074587;28;19927;-52
2022/09/15 12:28:50;;;;;;;;;;;;;;;37.45;25.53;98125.09;5074133;28;20015;-51
2022/09/15 12:31:23;;;;;;;;;;;;;;;36.43;25.56;98119.16;5074721;28;19930;-49
2022/09/15 12:33:53;;;;;;;;;;;;;;;35.30;26.79;98124.44;5074476;28;19963;-49
2022/09/15 12:36:30;;;;;;;;;;;;;;;34.30;27.86;98116.88;5074573;28;20401;-49
2022/09/15 12:38:55;;;;;;;;;;;;;;;33.84;28.48;98117.06;5056515;28;19920;-49
2022/09/15 12:41:21;;;;;;;;;;;;;;;34.20;28.74;98121.03;5074321;28;20390;-49
2022/09/15 12:44:14;;;;;;;;;;;;;;;35.16;28.41;98117.72;5074389;28;20341;-49
2022/09/15 12:46:40;;;;;;;;;;;;;;;35.61;27.90;98112.16;5056284;28;19917;-49
2022/09/15 12:49:15;;;;;;;;;;;;;;;35.60;27.88;98107.88;5074076;28;19962;-49
2022/09/15 12:51:47;;;;;;;;;;;;;;;36.24;26.98;98099.22;5074133;28;20447;-49
2022/09/15 12:54:17;;;;;;;;;;;;;;;36.85;26.52;98098.56;5056128;28;19917;-47
2022/09/15 12:56:49;;;;;;;;;;;;;;;37.12;25.32;98091.50;5074274;28;20393;-49